Hartland, Minnesota
Current Conditions -  °F | °C
As of 10:14 AM on Thursday 23 Oct 2014 (Local Time) from KAEL Reporting Station
Haze Haze  
Wind Chill: 52°   Ceiling: 200
Heat Index: 52°   Visibility: 1.7mi
Dew Point: 52°   Wind: 3mph
Humidity: 100%   Direction: 190°S
Pressure: 30.02"   Gusts: NA
Location:  43.8°N, 93.49°W
Report Text: KAEL 231514Z AUTO 19003KT 1 3/4SM BR OVC002 11/11 A3002 RMK AO2
Loading
Personal Weather Stations






























Interactive Weather Map
Tropical Storm Tracking
New forecast layout! Learn more

10-Day Weather Forecast

Advertisements
Track Severe Weather on mobile